Time;durP1;ratioP1;P1;durP2;ratioP2;P2;SDS_P1;SDS_P2;PMS_P1;PMS_P2;Temp;Humidity;BMP_temperature;BMP_pressure;BME280_temperature;BME280_humidity;BME280_pressure;Samples;Min_cycle;Max_cycle;Signal;HPM_P1;HPM_P2
2021/04/01 00:01:32;;;;;;;11.50;6.60;;;13.70;99.90;;;;;;4979220;28;20022;-75
2021/04/01 00:03:57;;;;;;;19.58;7.03;;;13.80;99.90;;;;;;4973780;28;20023;-75
2021/04/01 00:06:23;;;;;;;10.07;6.65;;;13.90;99.90;;;;;;4965628;28;20511;-74
2021/04/01 00:08:49;;;;;;;9.73;6.00;;;14.00;99.90;;;;;;4970835;28;20137;-75
2021/04/01 00:11:15;;;;;;;11.07;6.32;;;13.90;99.90;;;;;;4977765;28;20456;-75
2021/04/01 00:13:41;;;;;;;12.25;6.22;;;14.00;99.90;;;;;;4973168;28;20030;-75
2021/04/01 00:16:07;;;;;;;14.85;6.75;;;13.90;99.90;;;;;;4974777;28;20042;-76
2021/04/01 00:18:33;;;;;;;12.05;6.93;;;13.90;99.90;;;;;;4973063;28;20058;-75
2021/04/01 00:20:59;;;;;;;10.38;6.72;;;13.90;99.90;;;;;;4976628;28;20495;-75
2021/04/01 00:23:25;;;;;;;12.10;7.13;;;13.90;99.90;;;;;;4970847;28;20031;-75
2021/04/01 00:25:51;;;;;;;16.30;6.95;;;13.80;99.90;;;;;;4974330;28;20049;-75
2021/04/01 00:28:17;;;;;;;10.15;6.85;;;13.70;99.90;;;;;;4974740;28;20019;-75
2021/04/01 00:30:43;;;;;;;14.13;7.60;;;13.60;99.90;;;;;;4972844;28;20031;-75
2021/04/01 00:33:09;;;;;;;14.23;6.15;;;13.50;99.90;;;;;;4955596;28;20115;-75
2021/04/01 00:35:34;;;;;;;17.17;5.65;;;13.40;99.90;;;;;;4969994;28;20061;-75
2021/04/01 00:38:00;;;;;;;9.88;5.95;;;13.30;99.90;;;;;;4967000;28;20035;-75
2021/04/01 00:40:26;;;;;;;8.52;5.72;;;13.20;99.90;;;;;;4974199;28;20022;-75
2021/04/01 00:42:52;;;;;;;9.45;6.00;;;13.10;99.90;;;;;;4972492;28;20027;-76
2021/04/01 00:45:19;;;;;;;12.43;5.78;;;13.10;99.90;;;;;;4956199;28;20034;-75
2021/04/01 00:47:46;;;;;;;11.57;5.65;;;13.00;99.90;;;;;;4974299;28;20589;-75
2021/04/01 00:50:15;;;;;;;11.15;6.00;;;13.00;99.90;;;;;;4973285;28;20038;-75
2021/04/01 00:52:41;;;;;;;9.45;5.93;;;13.00;99.90;;;;;;4973650;28;20034;-75
2021/04/01 00:55:09;;;;;;;10.35;6.20;;;13.00;99.90;;;;;;4966259;28;20246;-75
2021/04/01 00:57:36;;;;;;;7.72;6.32;;;13.00;99.90;;;;;;4973671;28;20400;-74
2021/04/01 01:00:06;;;;;;;9.77;6.40;;;13.00;99.90;;;;;;4973555;28;20015;-75
2021/04/01 01:02:31;;;;;;;10.65;6.95;;;13.20;99.90;;;;;;4971769;28;20086;-76
2021/04/01 01:04:58;;;;;;;15.35;7.88;;;13.20;99.90;;;;;;4971201;28;20074;-75
2021/04/01 01:07:24;;;;;;;16.65;6.60;;;13.30;99.90;;;;;;4959482;28;20027;-75
2021/04/01 01:09:50;;;;;;;18.25;7.70;;;13.30;99.90;;;;;;4973601;28;20030;-74
2021/04/01 01:12:15;;;;;;;19.08;8.02;;;13.30;99.90;;;;;;4952993;28;20051;-75
2021/04/01 01:14:41;;;;;;;16.17;6.97;;;13.30;99.90;;;;;;4975564;28;20089;-76
2021/04/01 01:17:07;;;;;;;13.32;7.30;;;13.30;99.90;;;;;;4957233;28;20030;-75
2021/04/01 01:19:38;;;;;;;9.48;6.57;;;13.20;99.90;;;;;;4972794;28;20019;-75
2021/04/01 01:22:08;;;;;;;24.20;8.17;;;13.20;99.90;;;;;;4972399;28;20489;-76
2021/04/01 01:24:37;;;;;;;12.50;8.23;;;13.10;99.90;;;;;;4970704;28;20435;-75
2021/04/01 01:27:04;;;;;;;10.55;6.70;;;13.10;99.90;;;;;;4970378;28;20097;-74
2021/04/01 01:29:30;;;;;;;11.25;7.57;;;13.10;99.90;;;;;;4974079;28;20030;-75
2021/04/01 01:31:56;;;;;;;16.05;8.25;;;13.20;99.90;;;;;;4972436;28;20031;-75
2021/04/01 01:34:22;;;;;;;11.32;7.13;;;13.20;99.90;;;;;;4974007;28;20031;-75
2021/04/01 01:36:47;;;;;;;13.75;8.13;;;13.10;99.90;;;;;;4952646;28;20366;-74
2021/04/01 01:39:13;;;;;;;16.92;7.75;;;13.20;99.90;;;;;;4972321;28;20035;-75
2021/04/01 01:41:39;;;;;;;15.30;8.77;;;13.10;99.90;;;;;;4971055;28;20384;-75
2021/04/01 01:44:05;;;;;;;13.40;7.78;;;13.20;99.90;;;;;;4972194;28;20043;-74
2021/04/01 01:46:31;;;;;;;15.10;8.13;;;13.10;99.90;;;;;;4970452;28;20120;-75
2021/04/01 01:48:58;;;;;;;19.52;8.27;;;13.10;99.90;;;;;;4970679;28;20027;-75
2021/04/01 01:51:25;;;;;;;21.48;8.60;;;13.00;99.90;;;;;;4969143;28;20026;-75
2021/04/01 01:53:51;;;;;;;20.02;9.23;;;13.10;99.90;;;;;;4974751;28;20475;-75
2021/04/01 01:56:25;;;;;;;13.65;8.73;;;13.10;99.90;;;;;;4970756;28;20057;-74
2021/04/01 01:58:56;;;;;;;18.15;9.38;;;13.10;99.90;;;;;;4972899;28;20192;-75
2021/04/01 02:01:24;;;;;;;21.77;10.25;;;13.10;99.90;;;;;;4971431;28;20369;-75
2021/04/01 02:03:50;;;;;;;15.52;9.10;;;13.10;99.90;;;;;;4970951;28;20042;-75
2021/04/01 02:06:18;;;;;;;17.45;9.85;;;13.10;99.90;;;;;;4966501;28;21697;-75
2021/04/01 02:08:48;;;;;;;17.55;10.10;;;13.00;99.90;;;;;;4961002;28;20030;-74
2021/04/01 02:11:18;;;;;;;15.20;9.70;;;13.20;99.90;;;;;;4971143;28;20041;-76
2021/04/01 02:13:44;;;;;;;28.33;11.65;;;13.10;99.90;;;;;;4977887;28;20495;-74
2021/04/01 02:16:10;;;;;;;13.43;9.57;;;13.10;99.90;;;;;;4974481;28;20034;-75
2021/04/01 02:18:37;;;;;;;22.38;10.55;;;13.10;99.90;;;;;;4971838;28;20034;-75
2021/04/01 02:21:04;;;;;;;19.25;11.10;;;13.10;99.90;;;;;;4970576;28;20030;-75
2021/04/01 02:23:34;;;;;;;19.58;11.43;;;13.10;99.90;;;;;;4974722;28;20033;-74
2021/04/01 02:26:02;;;;;;;26.42;11.95;;;13.00;99.90;;;;;;4971896;28;20026;-75
2021/04/01 02:28:29;;;;;;;25.85;11.70;;;13.00;99.90;;;;;;4971035;28;20030;-75
2021/04/01 02:31:00;;;;;;;17.55;12.43;;;13.00;99.90;;;;;;4971071;28;20095;-75
2021/04/01 02:33:29;;;;;;;21.30;12.18;;;13.00;99.90;;;;;;4969383;28;20509;-74
2021/04/01 02:35:55;;;;;;;28.63;11.25;;;13.00;99.90;;;;;;4970568;28;20033;-74
2021/04/01 02:38:22;;;;;;;22.73;11.60;;;12.90;99.90;;;;;;4964861;28;20018;-74
2021/04/01 02:40:48;;;;;;;22.27;13.15;;;12.90;99.90;;;;;;4969131;28;20035;-74
2021/04/01 02:43:20;;;;;;;24.52;12.35;;;12.80;99.90;;;;;;4969439;28;20041;-73
2021/04/01 02:45:46;;;;;;;27.77;11.57;;;12.70;99.90;;;;;;4967932;28;20023;-74
2021/04/01 02:48:12;;;;;;;19.25;12.20;;;12.70;99.90;;;;;;4968045;28;20110;-74
2021/04/01 02:50:38;;;;;;;20.73;11.40;;;12.60;99.90;;;;;;4970424;28;20453;-74
2021/04/01 02:53:03;;;;;;;23.55;12.30;;;12.50;99.90;;;;;;4971068;28;20046;-74
2021/04/01 02:55:29;;;;;;;25.55;10.73;;;12.40;99.90;;;;;;4970427;28;20066;-75
2021/04/01 02:57:56;;;;;;;24.23;12.48;;;12.40;99.90;;;;;;4959852;28;20027;-74
2021/04/01 03:00:24;;;;;;;12.80;8.43;;;12.30;99.90;;;;;;4970981;28;20015;-74
2021/04/01 03:02:54;;;;;;;16.13;9.55;;;12.20;99.90;;;;;;4972161;28;20045;-74
2021/04/01 03:05:20;;;;;;;11.90;8.25;;;12.20;99.90;;;;;;4959038;28;20030;-74
2021/04/01 03:07:46;;;;;;;20.92;9.25;;;12.20;99.90;;;;;;4968368;28;20039;-74
2021/04/01 03:10:13;;;;;;;12.52;8.95;;;12.10;99.90;;;;;;4969409;28;20517;-74
2021/04/01 03:12:40;;;;;;;14.93;8.73;;;12.10;99.90;;;;;;4975099;28;20038;-74
2021/04/01 03:15:08;;;;;;;17.60;10.90;;;12.00;99.90;;;;;;4969773;28;20058;-74
2021/04/01 03:17:34;;;;;;;21.15;11.90;;;12.00;99.90;;;;;;4955806;28;20165;-74
2021/04/01 03:20:00;;;;;;;18.88;10.95;;;12.00;99.90;;;;;;4973738;28;20126;-74
2021/04/01 03:22:26;;;;;;;15.95;9.68;;;12.00;99.90;;;;;;4969154;28;20444;-74
2021/04/01 03:24:52;;;;;;;21.95;11.00;;;12.10;99.90;;;;;;4971783;28;20035;-74
2021/04/01 03:27:18;;;;;;;17.27;11.55;;;12.00;99.90;;;;;;4969850;28;20027;-74
2021/04/01 03:30:02;;;;;;;23.05;11.50;;;12.10;99.90;;;;;;4954629;28;20088;-74
2021/04/01 03:32:29;;;;;;;22.50;13.52;;;12.10;99.90;;;;;;4969268;28;20024;-74
2021/04/01 03:34:55;;;;;;;23.52;12.93;;;12.20;99.90;;;;;;4957880;28;20027;-74
2021/04/01 03:37:20;;;;;;;25.45;12.70;;;12.30;99.90;;;;;;4954085;28;20057;-74
2021/04/01 03:39:46;;;;;;;25.92;12.75;;;12.20;99.90;;;;;;4957805;28;20026;-75
2021/04/01 03:42:12;;;;;;;21.55;11.63;;;12.20;99.90;;;;;;4964777;28;20063;-74
2021/04/01 03:44:38;;;;;;;17.80;12.07;;;12.20;99.90;;;;;;4964652;28;20114;-74
2021/04/01 03:47:03;;;;;;;25.65;13.30;;;12.10;99.90;;;;;;4970851;28;20065;-74
2021/04/01 03:49:29;;;;;;;24.25;11.55;;;12.10;99.90;;;;;;4970716;28;20035;-74
2021/04/01 03:51:55;;;;;;;19.35;11.90;;;12.00;99.90;;;;;;4973131;28;20041;-74
2021/04/01 03:54:20;;;;;;;29.23;14.00;;;12.00;99.90;;;;;;4968269;28;20067;-74
2021/04/01 03:56:48;;;;;;;34.10;12.80;;;12.00;99.90;;;;;;4969574;28;20099;-73
2021/04/01 03:59:21;;;;;;;25.33;14.65;;;12.00;99.90;;;;;;4970662;28;20412;-73
2021/04/01 04:04:27;;;;;;;34.47;15.57;;;12.10;99.90;;;;;;4970992;28;20025;-73
2021/04/01 04:09:42;;;;;;;22.90;14.75;;;12.10;99.90;;;;;;4970579;28;20137;-75
2021/04/01 04:14:43;;;;;;;31.48;15.82;;;12.30;99.90;;;;;;4973251;28;20089;-74
2021/04/01 04:17:09;;;;;;;38.88;17.08;;;12.20;99.90;;;;;;4956910;28;20066;-74
2021/04/01 04:19:35;;;;;;;27.98;16.80;;;12.20;99.90;;;;;;4969735;28;20038;-74
2021/04/01 04:22:01;;;;;;;32.58;17.52;;;12.20;99.90;;;;;;4977279;28;20026;-75
2021/04/01 04:24:28;;;;;;;28.00;16.52;;;12.10;99.90;;;;;;4973169;28;20034;-76
2021/04/01 04:26:55;;;;;;;33.05;17.67;;;12.20;99.90;;;;;;4974953;28;20110;-73
2021/04/01 04:29:21;;;;;;;31.48;17.83;;;12.20;99.90;;;;;;4963340;28;20085;-74
2021/04/01 04:31:47;;;;;;;31.80;18.20;;;12.20;99.90;;;;;;4973676;28;20034;-74
2021/04/01 04:34:12;;;;;;;33.38;18.58;;;12.20;99.90;;;;;;4971080;28;20042;-73
2021/04/01 04:36:38;;;;;;;40.20;19.88;;;12.20;99.90;;;;;;4971886;28;20035;-73
2021/04/01 04:39:04;;;;;;;34.22;18.08;;;12.20;99.90;;;;;;4973144;28;20397;-74
2021/04/01 04:41:30;;;;;;;33.63;18.58;;;12.20;99.90;;;;;;4957521;28;20046;-74
2021/04/01 04:43:55;;;;;;;31.98;20.20;;;12.20;99.90;;;;;;4973372;28;20031;-74
2021/04/01 04:46:21;;;;;;;32.92;21.02;;;12.20;99.90;;;;;;4972844;28;20051;-75
2021/04/01 04:48:47;;;;;;;40.15;18.50;;;12.20;99.90;;;;;;4967631;28;20030;-75
2021/04/01 04:51:13;;;;;;;45.53;20.73;;;12.20;99.90;;;;;;4969136;28;20034;-74
2021/04/01 04:53:38;;;;;;;41.65;20.25;;;12.20;99.90;;;;;;4970476;28;20035;-74
2021/04/01 04:58:40;;;;;;;39.75;22.52;;;12.20;99.90;;;;;;4972464;28;20106;-75
2021/04/01 05:06:36;;;;;;;51.70;22.10;;;12.20;99.90;;;;;;4972701;28;20026;-74
2021/04/01 05:09:03;;;;;;;43.00;20.92;;;12.20;99.90;;;;;;4958463;28;20022;-74
2021/04/01 05:11:31;;;;;;;46.65;21.88;;;12.30;99.90;;;;;;4975376;28;20114;-75
2021/04/01 05:13:56;;;;;;;34.13;19.20;;;12.30;99.90;;;;;;4971534;28;20027;-74
2021/04/01 05:16:22;;;;;;;35.38;20.35;;;12.30;99.90;;;;;;4964950;28;20026;-75
2021/04/01 05:18:48;;;;;;;35.10;22.13;;;12.30;99.90;;;;;;4961700;28;20162;-75
2021/04/01 05:21:15;;;;;;;29.98;19.77;;;12.30;99.90;;;;;;4971202;28;20027;-74
2021/04/01 05:23:48;;;;;;;37.72;18.30;;;12.30;99.90;;;;;;4972544;28;20027;-74
2021/04/01 05:29:10;;;;;;;37.25;20.73;;;12.10;99.90;;;;;;4975518;28;19918;-74
2021/04/01 05:31:38;;;;;;;38.38;23.95;;;12.20;99.90;;;;;;4971977;28;20058;-74
2021/04/01 05:34:04;;;;;;;37.88;22.10;;;12.30;99.90;;;;;;4970246;28;20122;-74
2021/04/01 05:36:34;;;;;;;50.05;24.23;;;12.50;99.90;;;;;;4971967;28;20073;-74
2021/04/01 05:39:00;;;;;;;42.05;23.65;;;12.60;99.90;;;;;;4975046;28;20499;-75
2021/04/01 05:41:29;;;;;;;47.13;25.25;;;12.70;99.90;;;;;;4976032;28;20054;-74
2021/04/01 05:44:13;;;;;;;35.95;24.02;;;12.70;99.90;;;;;;4973366;28;20026;-74
2021/04/01 05:49:22;;;;;;;45.58;25.67;;;12.80;99.90;;;;;;4972584;28;20101;-75
2021/04/01 05:57:20;;;;;;;57.90;25.83;;;13.00;99.90;;;;;;4970111;28;20034;-75
2021/04/01 06:05:20;;;;;;;46.25;25.52;;;13.30;99.90;;;;;;4968330;28;20031;-75
2021/04/01 06:07:47;;;;;;;45.13;26.52;;;13.50;99.90;;;;;;4971368;28;20034;-74
2021/04/01 06:10:18;;;;;;;47.28;26.60;;;13.60;99.90;;;;;;4975238;28;20101;-75
2021/04/01 06:12:44;;;;;;;51.22;28.48;;;13.70;99.90;;;;;;4958606;28;20699;-74
2021/04/01 06:15:14;;;;;;;43.17;27.33;;;13.90;99.90;;;;;;4961452;28;20058;-75
2021/04/01 06:17:48;;;;;;;54.63;27.40;;;13.90;99.90;;;;;;4969153;28;20059;-76
2021/04/01 06:20:15;;;;;;;55.75;27.80;;;14.10;99.90;;;;;;4970481;28;20023;-77
2021/04/01 06:22:43;;;;;;;47.35;27.40;;;14.30;99.90;;;;;;4969937;28;20493;-75
2021/04/01 06:25:15;;;;;;;50.45;28.33;;;14.50;99.90;;;;;;4969668;28;20327;-66
2021/04/01 06:27:54;;;;;;;;;;;14.60;99.90;;;;;;4970789;28;20046;-68
2021/04/01 06:30:26;;;;;;;55.20;28.50;;;14.80;99.90;;;;;;4969482;28;19921;-66
2021/04/01 06:33:09;;;;;;;50.55;28.80;;;14.80;99.90;;;;;;4961025;28;20035;-67
2021/04/01 06:35:54;;;;;;;45.83;26.00;;;14.90;99.90;;;;;;4970915;28;20516;-67
2021/04/01 06:38:21;;;;;;;56.20;27.58;;;14.90;99.90;;;;;;4976614;28;20072;-71
2021/04/01 06:41:03;;;;;;;60.08;26.85;;;15.00;99.90;;;;;;4970253;28;20058;-69
2021/04/01 06:43:33;;;;;;;43.78;29.88;;;15.10;99.90;;;;;;4956317;28;20034;-70
2021/04/01 06:46:08;;;;;;;47.65;27.33;;;15.20;99.90;;;;;;4967503;28;20038;-69
2021/04/01 06:51:14;;;;;;;56.78;29.90;;;15.40;99.90;;;;;;4969251;28;20106;-69
2021/04/01 06:59:37;;;;;;;50.10;26.83;;;15.70;99.90;;;;;;4968267;28;20077;-69
2021/04/01 07:02:40;;;;;;;51.10;29.10;;;15.80;99.90;;;;;;4960364;28;20074;-71
2021/04/01 07:04:41;;;;;;;43.63;26.42;;;15.90;99.90;;;;;;4961403;28;20097;-70
2021/04/01 07:07:14;;;;;;;43.65;26.42;;;16.10;99.90;;;;;;4971744;28;20425;-70
2021/04/01 07:12:43;;;;;;;47.17;25.80;;;16.40;99.90;;;;;;4917132;28;20042;-71
2021/04/01 07:15:19;;;;;;;41.28;25.38;;;16.50;99.90;;;;;;4969305;28;20105;-69
2021/04/01 07:17:50;;;;;;;115.80;28.42;;;16.60;99.90;;;;;;4970941;28;20477;-72
2021/04/01 07:32:04;;;;;;;79.43;32.38;;;17.20;99.90;;;;;;4971331;28;20142;-69
2021/04/01 07:48:42;;;;;;;62.35;36.63;;;17.40;99.90;;;;;;4972046;28;20029;-69
2021/04/01 07:54:09;;;;;;;65.32;33.25;;;17.40;99.90;;;;;;4981646;28;20027;-70
2021/04/01 07:56:44;;;;;;;57.83;32.13;;;17.30;99.90;;;;;;4957718;28;20488;-68
2021/04/01 08:04:52;;;;;;;46.45;28.25;;;17.50;99.90;;;;;;4941251;28;20460;-70
2021/04/01 08:07:21;;;;;;;50.05;28.15;;;17.50;99.90;;;;;;4975944;28;20033;-69
2021/04/01 08:09:52;;;;;;;45.25;24.08;;;17.60;99.90;;;;;;4971445;28;20058;-68
2021/04/01 08:12:30;;;;;;;39.75;24.13;;;17.70;99.90;;;;;;4975650;28;20035;-71
2021/04/01 08:15:05;;;;;;;55.55;23.63;;;17.80;99.90;;;;;;4972442;28;20082;-70
2021/04/01 08:17:47;;;;;;;55.05;25.60;;;17.80;99.90;;;;;;4970959;28;20126;-69
2021/04/01 08:20:19;;;;;;;;;;;17.70;99.90;;;;;;4974369;28;20061;-70
2021/04/01 08:22:56;;;;;;;40.13;20.90;;;17.60;99.90;;;;;;4974465;28;20010;-69
2021/04/01 08:25:25;;;;;;;37.15;19.27;;;17.50;99.90;;;;;;4974085;28;20023;-70
2021/04/01 08:28:16;;;;;;;33.42;18.15;;;17.50;99.90;;;;;;4974505;28;20362;-69
2021/04/01 08:36:21;;;;;;;32.83;19.67;;;17.50;99.90;;;;;;4902083;29;20710;-68
2021/04/01 08:38:47;;;;;;;33.85;18.88;;;17.60;99.90;;;;;;4961221;28;20030;-68
2021/04/01 08:41:22;;;;;;;31.75;19.55;;;17.60;99.90;;;;;;4973837;28;20105;-69
2021/04/01 08:44:06;;;;;;;33.72;19.45;;;17.60;99.90;;;;;;4973586;28;20085;-70
2021/04/01 08:47:12;;;;;;;30.10;18.38;;;17.60;99.90;;;;;;4973836;28;20055;-70
2021/04/01 08:50:03;;;;;;;31.88;18.98;;;17.60;99.90;;;;;;4970899;28;20027;-70
2021/04/01 08:52:41;;;;;;;31.95;18.63;;;17.60;99.90;;;;;;4977337;28;20621;-69
2021/04/01 08:55:21;;;;;;;30.17;19.15;;;17.80;99.90;;;;;;4977564;28;20046;-68
2021/04/01 08:58:08;;;;;;;31.55;18.33;;;17.90;99.90;;;;;;4969121;28;20033;-69
2021/04/01 09:00:34;;;;;;;44.03;21.33;;;18.00;99.90;;;;;;4975118;28;20019;-71
2021/04/01 09:03:02;;;;;;;45.80;21.30;;;18.10;99.90;;;;;;4973308;28;20022;-70
2021/04/01 09:05:27;;;;;;;43.22;20.27;;;18.00;99.90;;;;;;4974674;28;20022;-69
2021/04/01 09:08:00;;;;;;;45.25;20.58;;;18.00;99.90;;;;;;4972435;28;20034;-71
2021/04/01 09:10:35;;;;;;;43.85;19.35;;;18.10;99.90;;;;;;4974041;28;20027;-69
2021/04/01 09:13:18;;;;;;;41.92;22.08;;;18.20;99.90;;;;;;4977345;28;20034;-71
2021/04/01 09:16:02;;;;;;;36.80;18.75;;;18.30;99.90;;;;;;4973091;28;20027;-71
2021/04/01 09:18:30;;;;;;;36.50;18.65;;;18.40;99.90;;;;;;4984616;28;20027;-69
2021/04/01 09:20:58;;;;;;;46.05;21.00;;;18.50;99.90;;;;;;4973149;28;20057;-71
2021/04/01 09:23:35;;;;;;;37.80;18.33;;;18.70;99.90;;;;;;4955815;28;20086;-71
2021/04/01 09:26:03;;;;;;;36.38;17.83;;;18.80;99.90;;;;;;4976842;28;20022;-69
2021/04/01 09:28:38;;;;;;;32.88;18.00;;;18.90;99.90;;;;;;4972880;28;20114;-69
2021/04/01 09:31:05;;;;;;;31.38;16.48;;;19.10;99.90;;;;;;4959252;28;20022;-71
2021/04/01 09:33:34;;;;;;;27.73;14.35;;;19.20;99.90;;;;;;4973484;28;20118;-70
2021/04/01 09:36:11;;;;;;;29.10;14.05;;;19.30;99.90;;;;;;4971064;28;20117;-69
2021/04/01 09:38:43;;;;;;;32.42;15.65;;;19.40;99.90;;;;;;4977819;28;20030;-70
2021/04/01 09:41:10;;;;;;;22.92;14.25;;;19.40;99.90;;;;;;4972733;28;20142;-69
2021/04/01 09:43:48;;;;;;;20.88;9.45;;;19.60;99.90;;;;;;4972671;28;20669;-69
2021/04/01 09:46:14;;;;;;;32.28;14.95;;;19.50;98.20;;;;;;4973603;28;20090;-68
2021/04/01 09:48:45;;;;;;;17.40;11.07;;;19.50;99.10;;;;;;4961623;28;20030;-69
2021/04/01 09:51:31;;;;;;;26.00;14.82;;;19.50;96.90;;;;;;4974473;28;20081;-69
2021/04/01 09:53:57;;;;;;;29.77;14.98;;;19.50;97.80;;;;;;4977863;28;20034;-70
2021/04/01 09:56:28;;;;;;;26.98;15.23;;;19.60;98.80;;;;;;4976405;28;20102;-70
2021/04/01 09:58:55;;;;;;;33.50;18.38;;;19.70;99.10;;;;;;4972237;28;20061;-69
2021/04/01 10:01:27;;;;;;;32.60;14.93;;;19.80;98.80;;;;;;4972807;28;20023;-70
2021/04/01 10:04:04;;;;;;;18.85;12.27;;;19.80;98.60;;;;;;4977738;28;20022;-72
2021/04/01 10:06:43;;;;;;;30.10;13.63;;;19.80;97.80;;;;;;4973089;28;20106;-71
2021/04/01 10:09:20;;;;;;;23.92;12.15;;;19.90;99.90;;;;;;4971616;28;20568;-70
2021/04/01 10:12:07;;;;;;;22.85;14.45;;;20.00;99.60;;;;;;4971749;28;20042;-69
2021/04/01 10:14:33;;;;;;;30.50;15.73;;;20.20;99.90;;;;;;4956296;28;20373;-70
2021/04/01 10:17:05;;;;;;;27.50;13.75;;;20.30;99.90;;;;;;4975992;28;20089;-68
2021/04/01 10:19:37;;;;;;;28.88;13.70;;;20.30;99.90;;;;;;4973182;28;20019;-69
2021/04/01 10:22:03;;;;;;;22.73;11.45;;;20.30;99.90;;;;;;4975439;28;20088;-71
2021/04/01 10:24:35;;;;;;;21.92;14.43;;;20.20;99.90;;;;;;4971788;28;20031;-70
2021/04/01 10:27:13;;;;;;;;;;;20.20;99.90;;;;;;4978894;28;20026;-69
2021/04/01 10:32:13;;;;;;;28.17;13.93;;;20.20;99.90;;;;;;4972706;28;20106;-69
2021/04/01 10:35:00;;;;;;;28.42;15.32;;;20.30;99.90;;;;;;4976384;28;20066;-70
2021/04/01 10:37:26;;;;;;;40.20;16.85;;;20.40;99.90;;;;;;4972154;28;20037;-70
2021/04/01 10:39:52;;;;;;;29.45;15.00;;;20.50;99.70;;;;;;4969333;28;20023;-69
2021/04/01 10:42:31;;;;;;;28.00;15.18;;;20.60;99.70;;;;;;4971180;28;20019;-70
2021/04/01 10:45:06;;;;;;;31.88;16.15;;;20.60;99.50;;;;;;4971901;28;20481;-70
2021/04/01 10:48:03;;;;;;;29.27;15.93;;;20.50;99.90;;;;;;4953913;28;20073;-69
2021/04/01 10:50:30;;;;;;;31.95;17.33;;;20.60;99.90;;;;;;4970540;28;20107;-69
2021/04/01 10:52:58;;;;;;;27.02;16.48;;;20.60;99.90;;;;;;4970824;28;20109;-68
2021/04/01 10:55:30;;;;;;;31.27;16.90;;;20.60;99.90;;;;;;4959829;28;20030;-70
2021/04/01 10:58:10;;;;;;;38.13;14.27;;;20.70;99.80;;;;;;4971010;28;20027;-71
2021/04/01 11:00:37;;;;;;;19.20;12.48;;;20.70;99.90;;;;;;4972124;28;20023;-70
2021/04/01 11:03:07;;;;;;;21.73;13.90;;;20.80;99.90;;;;;;4971516;28;20093;-69
2021/04/01 11:05:36;;;;;;;19.73;11.73;;;20.70;99.90;;;;;;4972945;28;20058;-68
2021/04/01 11:08:11;;;;;;;30.98;12.90;;;20.70;99.90;;;;;;4970972;28;20093;-68
2021/04/01 11:10:38;;;;;;;16.98;9.45;;;20.80;99.90;;;;;;4971473;28;20029;-69
2021/04/01 11:13:06;;;;;;;22.02;12.02;;;20.80;98.70;;;;;;4974698;28;20098;-67
2021/04/01 11:15:39;;;;;;;21.92;11.93;;;20.70;98.90;;;;;;4971693;28;20051;-70
2021/04/01 11:18:18;;;;;;;21.40;12.85;;;20.70;98.60;;;;;;4971010;28;20034;-69
2021/04/01 11:20:48;;;;;;;33.50;12.23;;;20.70;99.40;;;;;;4965538;28;20118;-69
2021/04/01 11:23:22;;;;;;;19.77;11.05;;;20.80;99.20;;;;;;4975571;28;20033;-68
2021/04/01 11:25:51;;;;;;;14.02;8.88;;;20.80;99.30;;;;;;4971194;28;20055;-67
2021/04/01 11:28:17;;;;;;;15.48;8.82;;;20.70;97.40;;;;;;4971394;28;20054;-67
2021/04/01 11:30:52;;;;;;;19.50;9.82;;;20.70;97.30;;;;;;4971568;28;20027;-70
2021/04/01 11:33:20;;;;;;;17.08;8.40;;;20.80;97.00;;;;;;4968227;28;20023;-68
2021/04/01 11:35:59;;;;;;;13.55;9.00;;;20.70;97.20;;;;;;4967447;28;20489;-69
2021/04/01 11:38:25;;;;;;;18.48;9.65;;;20.80;97.10;;;;;;4971263;28;20018;-69
2021/04/01 11:40:58;;;;;;;16.60;9.07;;;20.90;97.40;;;;;;4970345;28;20057;-69
2021/04/01 11:43:30;;;;;;;25.92;11.25;;;21.00;97.20;;;;;;4950187;28;20046;-69
2021/04/01 11:45:56;;;;;;;17.83;10.57;;;21.00;97.70;;;;;;4951695;28;20568;-69
2021/04/01 11:48:22;;;;;;;19.55;10.05;;;21.00;96.90;;;;;;4970091;28;20259;-70
2021/04/01 11:50:50;;;;;;;17.20;11.35;;;20.90;97.10;;;;;;4972164;28;20062;-67
2021/04/01 11:53:16;;;;;;;21.92;11.40;;;20.90;97.00;;;;;;4970263;28;20062;-69
2021/04/01 11:55:53;;;;;;;22.02;12.35;;;20.80;97.60;;;;;;4972096;28;20057;-70
2021/04/01 11:58:21;;;;;;;38.38;15.77;;;20.90;98.50;;;;;;4968561;28;20054;-70
2021/04/01 12:00:49;;;;;;;23.85;14.93;;;20.80;98.50;;;;;;4969103;28;20015;-68
2021/04/01 12:03:27;;;;;;;21.75;13.75;;;20.80;98.40;;;;;;4952246;28;20046;-69
2021/04/01 12:05:53;;;;;;;25.55;16.17;;;20.70;99.00;;;;;;4970932;28;20389;-67
2021/04/01 12:08:20;;;;;;;31.38;16.13;;;20.90;98.20;;;;;;4977129;28;20026;-70
2021/04/01 12:10:55;;;;;;;31.60;18.15;;;20.80;98.00;;;;;;4971270;28;20082;-68
2021/04/01 12:13:21;;;;;;;32.30;17.60;;;20.60;98.20;;;;;;4971868;28;20023;-69
2021/04/01 12:15:47;;;;;;;28.40;16.27;;;20.70;99.00;;;;;;4968372;28;20027;-69
2021/04/01 12:18:13;;;;;;;28.08;15.85;;;20.70;99.80;;;;;;4971146;28;20106;-69
2021/04/01 12:20:39;;;;;;;26.77;16.52;;;20.70;99.90;;;;;;4975271;28;20019;-70
2021/04/01 12:23:24;;;;;;;38.13;19.60;;;20.60;99.90;;;;;;4955728;28;20019;-69
2021/04/01 12:26:00;;;;;;;31.35;18.42;;;20.50;99.60;;;;;;4970837;28;20031;-69
2021/04/01 12:28:28;;;;;;;29.33;18.98;;;20.60;99.90;;;;;;4973251;28;20041;-70
2021/04/01 12:30:54;;;;;;;32.10;16.75;;;20.60;99.90;;;;;;4971413;28;20030;-69
2021/04/01 12:33:25;;;;;;;33.47;16.88;;;20.50;99.90;;;;;;4972941;28;20022;-69
2021/04/01 12:35:53;;;;;;;28.80;17.45;;;20.50;99.90;;;;;;4971445;28;20023;-69
2021/04/01 12:38:33;;;;;;;31.75;18.27;;;20.60;99.90;;;;;;4970664;28;20350;-68
2021/04/01 12:41:20;;;;;;;33.97;15.93;;;20.60;99.90;;;;;;4965848;28;20026;-68
2021/04/01 12:43:47;;;;;;;30.48;18.27;;;20.60;99.90;;;;;;4993567;28;20448;-69
2021/04/01 12:46:13;;;;;;;33.88;17.92;;;20.60;99.90;;;;;;4973474;28;20027;-69
2021/04/01 12:48:54;;;;;;;33.10;17.23;;;20.60;99.90;;;;;;4974182;28;20110;-69
2021/04/01 12:51:21;;;;;;;33.13;17.45;;;20.60;99.20;;;;;;4962138;28;20496;-67
2021/04/01 12:54:02;;;;;;;34.42;20.08;;;20.60;99.30;;;;;;4971434;28;20034;-67
2021/04/01 12:56:31;;;;;;;35.83;19.70;;;20.60;99.90;;;;;;4972519;28;20091;-70
2021/04/01 12:59:03;;;;;;;38.33;20.67;;;20.50;99.90;;;;;;4974089;28;20023;-69
2021/04/01 13:01:33;;;;;;;39.75;20.75;;;20.60;99.40;;;;;;4973407;28;20380;-69
2021/04/01 13:04:03;;;;;;;43.38;24.77;;;20.50;98.70;;;;;;4973773;28;20034;-69
2021/04/01 13:06:39;;;;;;;30.05;18.73;;;20.20;99.20;;;;;;4973980;28;20484;-68
2021/04/01 13:11:34;;;;;;;38.00;23.15;;;20.50;99.40;;;;;;4966093;28;20081;-69
2021/04/01 13:13:59;;;;;;;34.95;18.63;;;20.30;99.80;;;;;;4973458;28;20031;-69
2021/04/01 13:16:25;;;;;;;44.10;23.63;;;20.50;99.10;;;;;;4974142;28;20508;-68
2021/04/01 13:18:51;;;;;;;40.47;22.55;;;20.30;97.40;;;;;;4973841;28;20023;-68
2021/04/01 13:21:32;;;;;;;38.92;21.05;;;20.20;99.20;;;;;;4973587;28;20081;-69
2021/04/01 13:26:36;;;;;;;59.50;24.40;;;20.60;99.90;;;;;;4972879;28;20042;-70
2021/04/01 13:29:04;;;;;;;41.25;22.77;;;20.60;99.30;;;;;;4974054;28;20476;-69
2021/04/01 13:31:54;;;;;;;47.97;21.90;;;20.60;99.70;;;;;;4975154;28;20023;-69
2021/04/01 13:36:58;;;;;;;50.42;23.90;;;20.60;99.90;;;;;;4973640;28;20023;-69
2021/04/01 13:40:10;;;;;;;50.35;23.15;;;20.70;99.90;;;;;;4973141;28;20109;-68
2021/04/01 13:42:35;;;;;;;43.10;21.77;;;20.60;99.90;;;;;;4964066;28;20043;-68
2021/04/01 13:45:12;;;;;;;38.78;21.85;;;20.60;99.90;;;;;;4972629;28;20404;-68
2021/04/01 13:47:42;;;;;;;41.83;21.00;;;20.60;99.80;;;;;;4973878;28;20504;-69
2021/04/01 13:50:20;;;;;;;37.72;19.58;;;20.70;99.90;;;;;;4973499;28;20038;-69
2021/04/01 13:53:02;;;;;;;37.58;20.33;;;20.80;98.90;;;;;;4974184;28;20125;-69
2021/04/01 13:55:33;;;;;;;35.97;19.17;;;20.90;98.30;;;;;;4971342;28;20103;-70
2021/04/01 14:09:18;;;;;;;36.15;16.00;;;21.20;97.10;;;;;;4967006;28;20081;-69
2021/04/01 14:11:44;;;;;;;38.15;15.43;;;21.20;96.90;;;;;;4981469;28;20027;-67
2021/04/01 14:14:10;;;;;;;30.77;13.32;;;21.20;96.90;;;;;;4971899;28;20030;-69
2021/04/01 14:16:40;;;;;;;25.60;15.30;;;21.10;96.20;;;;;;4970940;28;20034;-69
2021/04/01 14:19:06;;;;;;;34.30;16.27;;;21.20;96.70;;;;;;4970128;28;20023;-69
2021/04/01 14:21:33;;;;;;;29.15;13.95;;;21.00;96.50;;;;;;4973282;28;20124;-70
2021/04/01 14:24:05;;;;;;;27.50;13.85;;;20.90;96.80;;;;;;4973576;28;20026;-68
2021/04/01 14:26:36;;;;;;;;;;;21.00;96.60;;;;;;4975685;28;20086;-69
2021/04/01 14:29:04;;;;;;;22.40;13.13;;;21.20;96.90;;;;;;4981108;28;19992;-68
2021/04/01 14:31:34;;;;;;;24.90;12.70;;;21.30;97.00;;;;;;4973277;28;20056;-68